Time;durP1;ratioP1;P1;durP2;ratioP2;P2;SDS_P1;SDS_P2;PMS_P1;PMS_P2;Temp;Humidity;BMP_temperature;BMP_pressure;BME280_temperature;BME280_humidity;BME280_pressure;Samples;Min_cycle;Max_cycle;Signal;HPM_P1;HPM_P2
2020/12/27 00:02:53;;;;;;;16.67;6.17;;;;;;;1.19;83.39;100508.50;3504300;83;33092;-94
2020/12/27 00:07:54;;;;;;;14.30;6.33;;;;;;;1.18;83.45;100507.72;3504002;83;98275;-96
2020/12/27 00:12:55;;;;;;;17.83;6.37;;;;;;;1.17;83.09;100512.91;3498267;83;33031;-94
2020/12/27 00:17:56;;;;;;;18.47;7.00;;;;;;;1.14;83.06;100505.37;3498868;83;98126;-96
2020/12/27 00:22:56;;;;;;;16.07;6.40;;;;;;;1.14;82.69;100492.38;3500701;83;31582;-96
2020/12/27 00:27:57;;;;;;;18.27;6.70;;;;;;;1.13;82.77;100499.72;3513444;83;97931;-94
2020/12/27 00:32:58;;;;;;;16.40;7.50;;;;;;;1.13;82.84;100490.23;3511939;83;26044;-96
2020/12/27 00:37:59;;;;;;;15.87;6.87;;;;;;;1.12;82.64;100492.70;3513922;83;98210;-94
2020/12/27 00:43:00;;;;;;;15.33;6.10;;;;;;;1.12;82.89;100473.73;3429956;83;31676;-96
2020/12/27 00:48:01;;;;;;;17.10;6.90;;;;;;;1.16;82.43;100469.27;3396989;84;97404;-94
2020/12/27 00:53:02;;;;;;;16.57;7.43;;;;;;;1.17;82.38;100469.53;3393354;85;31872;-95
2020/12/27 00:58:03;;;;;;;18.50;7.13;;;;;;;1.18;82.76;100470.31;3385755;85;98679;-94
2020/12/27 01:03:04;;;;;;;15.73;6.70;;;;;;;0.99;82.68;100443.46;3397383;85;29988;-94
2020/12/27 01:08:05;;;;;;;16.97;6.93;;;;;;;0.99;82.68;100443.46;3387515;84;98236;-96
2020/12/27 01:13:06;;;;;;;16.80;6.50;;;;;;;1.10;82.40;100459.69;3399288;85;27946;-93
2020/12/27 01:18:07;;;;;;;15.33;6.77;;;;;;;1.08;82.34;100451.08;3386380;85;98453;-93
2020/12/27 01:23:08;;;;;;;14.10;6.97;;;;;;;1.08;82.41;100438.07;3397177;85;26682;-96
2020/12/27 01:28:08;;;;;;;17.63;8.03;;;;;;;1.06;82.25;100426.76;3392871;84;98428;-95
2020/12/27 01:33:09;;;;;;;14.17;5.73;;;;;;;1.04;82.37;100414.88;3344743;87;35024;-95
2020/12/27 01:38:10;;;;;;;14.50;6.30;;;;;;;1.05;82.34;100408.91;3332633;87;98430;-94
2020/12/27 01:43:11;;;;;;;14.77;5.33;;;;;;;1.03;82.24;100397.56;3367056;86;36259;-93
2020/12/27 01:48:14;;;;;;;13.67;5.93;;;;;;;0.99;82.32;100385.20;3451617;84;98178;-95
2020/12/27 01:53:15;;;;;;;16.13;6.10;;;;;;;1.00;82.12;100384.66;3455772;84;25930;-95
2020/12/27 01:58:20;;;;;;;13.77;6.00;;;;;;;0.98;81.64;100381.45;3451099;83;98201;-95
2020/12/27 02:03:21;;;;;;;13.20;5.77;;;;;;;0.98;82.02;100363.30;3456872;84;35038;-96
2020/12/27 02:08:22;;;;;;;15.43;6.13;;;;;;;0.98;81.76;100359.23;3450630;84;98073;-95
2020/12/27 02:13:23;;;;;;;13.53;6.17;;;;;;;0.99;81.87;100339.72;3454225;84;34961;-96
2020/12/27 02:18:24;;;;;;;12.43;5.90;;;;;;;0.99;81.27;100334.30;3442591;84;98222;-94
2020/12/27 02:23:25;;;;;;;12.67;6.00;;;;;;;0.98;81.44;100333.48;3450109;84;34947;-96
2020/12/27 02:28:26;;;;;;;15.27;6.17;;;;;;;0.98;81.50;100321.84;3448416;84;98317;-96
2020/12/27 02:33:27;;;;;;;12.87;5.87;;;;;;;0.95;81.12;100306.23;3455592;84;34999;-95
2020/12/27 02:38:28;;;;;;;14.90;6.23;;;;;;;0.95;81.29;100299.45;3449857;82;98176;-96
2020/12/27 02:43:29;;;;;;;18.50;7.13;;;;;;;0.91;81.20;100295.78;3453615;84;35253;-96
2020/12/27 02:48:29;;;;;;;14.60;6.77;;;;;;;0.87;80.73;100291.55;3395255;84;98240;-95
2020/12/27 02:53:30;;;;;;;17.27;7.30;;;;;;;0.80;81.25;100284.45;3455324;84;33209;-96
2020/12/27 02:58:31;;;;;;;13.47;6.50;;;;;;;0.74;81.12;100273.53;3450818;83;97724;-95
2020/12/27 03:03:32;;;;;;;13.00;5.73;;;;;;;0.68;80.68;100259.09;3458619;84;32757;-93
2020/12/27 03:08:33;;;;;;;16.27;6.57;;;;;;;0.62;81.03;100254.94;3453568;82;98457;-93
2020/12/27 03:13:34;;;;;;;16.07;6.27;;;;;;;0.59;80.75;100260.43;3451136;84;32707;-95
2020/12/27 03:18:35;;;;;;;12.73;6.07;;;;;;;0.58;80.66;100246.66;3453359;84;98759;-94
2020/12/27 03:23:35;;;;;;;15.67;5.47;;;;;;;0.55;80.86;100244.56;3454264;84;32743;-94
2020/12/27 03:28:37;;;;;;;14.55;5.72;;;;;;;0.51;80.91;100237.40;3442308;82;98447;-96
2020/12/27 03:33:37;;;;;;;14.70;5.27;;;;;;;0.47;80.67;100225.59;3449322;84;32723;-94
2020/12/27 03:38:38;;;;;;;14.78;6.12;;;;;;;0.42;80.60;100213.02;3456050;83;98023;-96
2020/12/27 03:43:39;;;;;;;15.33;5.17;;;;;;;0.36;80.46;100202.09;3479827;84;27330;-95
2020/12/27 03:48:40;;;;;;;16.43;6.57;;;;;;;0.33;80.80;100200.58;3453675;84;98191;-94
2020/12/27 03:53:41;;;;;;;14.73;5.77;;;;;;;0.27;81.13;100191.80;3448165;84;26008;-96
2020/12/27 03:58:42;;;;;;;12.40;5.10;;;;;;;0.27;81.02;100186.92;3449278;84;98195;-96
2020/12/27 04:03:42;;;;;;;14.10;6.77;;;;;;;0.23;81.11;100170.52;3466431;84;26679;-95
2020/12/27 04:08:43;;;;;;;17.82;6.97;;;;;;;0.20;81.42;100167.66;3458215;83;98143;-96
2020/12/27 04:13:44;;;;;;;13.47;5.73;;;;;;;0.16;81.63;100162.08;3460142;84;25747;-96
2020/12/27 04:18:45;;;;;;;19.80;6.92;;;;;;;0.11;82.04;100166.28;3455143;82;98168;-96
2020/12/27 04:23:46;;;;;;;17.67;7.17;;;;;;;-0.01;82.08;100143.64;3466100;84;33025;-94
2020/12/27 04:28:46;;;;;;;14.93;6.40;;;;;;;0.02;82.46;100157.91;3444087;84;98284;-96
2020/12/27 04:33:48;;;;;;;16.97;8.13;;;;;;;-0.02;82.56;100150.74;3459323;84;32981;-94
2020/12/27 04:38:49;;;;;;;16.93;7.10;;;;;;;-0.09;82.69;100139.80;3451095;84;98696;-96
2020/12/27 04:43:50;;;;;;;20.23;7.93;;;;;;;-0.12;82.96;100143.69;3443993;84;32973;-95
2020/12/27 04:48:53;;;;;;;16.40;7.60;;;;;;;-0.16;83.13;100134.05;3409394;84;98915;-94
2020/12/27 04:53:56;;;;;;;18.20;8.83;;;;;;;-0.17;83.03;100122.77;3417631;85;33051;-95
2020/12/27 04:58:57;;;;;;;17.03;7.53;;;;;;;-0.23;83.24;100109.92;3411001;84;97561;-94
2020/12/27 05:03:58;;;;;;;18.13;7.37;;;;;;;-0.25;83.54;100105.40;3428414;85;32975;-95
2020/12/27 05:08:59;;;;;;;16.63;7.90;;;;;;;-0.30;83.52;100094.72;3418545;85;98385;-93
2020/12/27 05:14:00;;;;;;;18.37;7.70;;;;;;;-0.32;83.86;100080.73;3407044;85;32985;-94
2020/12/27 05:19:03;;;;;;;20.43;6.80;;;;;;;-0.36;83.91;100078.41;3395035;85;98911;-95
2020/12/27 05:24:05;;;;;;;21.80;9.10;;;;;;;-0.42;84.00;100077.73;3417661;85;33007;-95
2020/12/27 05:29:06;;;;;;;17.07;7.63;;;;;;;-0.42;84.11;100069.39;3413627;85;98146;-96
2020/12/27 05:34:09;;;;;;;18.83;7.73;;;;;;;-0.42;84.28;100064.80;3424557;85;33439;-94
2020/12/27 05:39:15;;;;;;;16.83;6.97;;;;;;;-0.45;84.27;100068.11;3418654;85;97562;-95
2020/12/27 05:44:19;;;;;;;17.10;8.83;;;;;;;-0.47;84.30;100051.96;3364346;86;25892;-96
2020/12/27 05:49:20;;;;;;;13.30;6.40;;;;;;;-0.48;84.45;100049.02;3444513;84;98168;-93
2020/12/27 05:54:36;;;;;;;13.83;6.67;;;;;;;-0.47;84.40;100036.55;3457042;84;33400;-96
2020/12/27 05:59:36;;;;;;;15.60;6.30;;;;;;;-0.46;84.14;100032.73;3449930;82;97405;-95
2020/12/27 06:05:01;;;;;;;16.00;7.07;;;;;;;-0.41;83.99;100038.00;3461159;84;33048;-95
2020/12/27 06:10:13;;;;;;;16.67;7.03;;;;;;;-0.40;84.05;100026.64;3450513;83;97421;-96
2020/12/27 06:15:26;;;;;;;13.47;6.47;;;;;;;-0.42;84.04;99993.16;3460119;84;32921;-95
2020/12/27 06:20:32;;;;;;;15.40;6.27;;;;;;;-0.44;84.07;99985.13;3451618;82;98788;-96
2020/12/27 06:25:35;;;;;;;12.68;6.25;;;;;;;-0.47;83.93;99980.58;3453482;84;25584;-94
2020/12/27 06:30:40;;;;;;;15.57;7.60;;;;;;;-0.48;84.05;99974.16;3452734;84;98052;-94
2020/12/27 06:35:45;;;;;;;16.83;7.20;;;;;;;-0.49;84.24;99965.81;3459920;84;33298;-96
2020/12/27 06:40:58;;;;;;;19.43;7.93;;;;;;;-0.49;84.10;99967.70;3446525;84;98021;-94
2020/12/27 06:46:04;;;;;;;17.67;7.27;;;;;;;-0.49;84.10;99963.65;3415114;83;97379;-92
2020/12/27 06:51:05;;;;;;;15.30;6.90;;;;;;;-0.49;84.31;99952.84;3401566;85;25943;-96
2020/12/27 06:56:14;;;;;;;18.43;7.50;;;;;;;-0.50;84.08;99935.81;3397429;82;98494;-96
2020/12/27 07:01:22;;;;;;;14.93;7.20;;;;;;;-0.50;84.08;99935.81;3402005;85;32967;-95
2020/12/27 07:06:26;;;;;;;16.00;7.80;;;;;;;-0.51;84.09;99936.16;3394167;83;98293;-95
2020/12/27 07:11:30;;;;;;;14.20;6.97;;;;;;;-0.49;84.02;99927.16;3396736;85;33131;-95
2020/12/27 07:16:48;;;;;;;15.53;6.62;;;;;;;-0.57;83.86;99901.72;3395491;84;98574;-94
2020/12/27 07:21:49;;;;;;;14.07;6.83;;;;;;;-0.47;83.63;99900.06;3406097;85;33321;-96
2020/12/27 07:26:51;;;;;;;14.43;6.70;;;;;;;-0.47;83.69;99897.91;3385110;84;98392;-95
2020/12/27 07:31:53;;;;;;;17.43;6.53;;;;;;;-0.48;83.53;99892.27;3392138;85;33167;-94
2020/12/27 07:37:01;;;;;;;18.60;7.40;;;;;;;-0.50;83.55;99875.01;3389159;84;98263;-94
2020/12/27 07:42:02;;;;;;;12.83;6.97;;;;;;;-0.48;83.19;99870.64;3404688;85;33050;-96
2020/12/27 07:47:05;;;;;;;14.47;6.80;;;;;;;-0.47;83.45;99864.12;3439152;82;98474;-92
2020/12/27 07:52:06;;;;;;;18.83;8.27;;;;;;;-0.43;83.04;99862.38;3446634;84;32971;-94
2020/12/27 07:57:12;;;;;;;14.78;6.12;;;;;;;-0.40;83.14;99847.66;3453188;84;98251;-95
2020/12/27 08:02:14;;;;;;;13.98;6.40;;;;;;;-0.38;82.88;99840.05;3460813;84;25886;-95
2020/12/27 08:07:19;;;;;;;12.73;5.83;;;;;;;-0.31;82.94;99824.14;3442029;84;98152;-94
2020/12/27 08:12:21;;;;;;;14.40;6.17;;;;;;;-0.30;82.59;99814.91;3471547;84;33105;-94
2020/12/27 08:51:02;;;;;;;13.67;5.13;;;;;;;0.19;79.83;99766.98;3583307;75;98230;-96
2020/12/27 08:56:05;;;;;;;13.75;5.80;;;;;;;0.20;79.92;99753.67;3594471;80;97178;-91
2020/12/27 09:16:39;;;;;;;11.53;3.85;;;;;;;0.46;78.15;99713.75;3759559;74;97136;-95
2020/12/27 09:21:42;;;;;;;11.53;4.33;;;;;;;0.54;77.83;99715.60;3856622;74;29487;-96
2020/12/27 09:26:43;;;;;;;10.95;3.70;;;;;;;0.63;77.43;99727.18;3858761;74;98324;-94
2020/12/27 09:31:46;;;;;;;10.53;4.23;;;;;;;0.70;76.78;99712.00;3866818;75;35021;-95
2020/12/27 09:36:49;;;;;;;11.48;4.17;;;;;;;0.80;75.91;99696.72;3844323;74;98361;-96
2020/12/27 09:41:50;;;;;;;13.27;5.20;;;;;;;0.86;73.78;99689.18;3857939;74;26507;-96
2020/12/27 09:46:52;;;;;;;10.77;3.67;;;;;;;0.95;74.17;99682.59;3870816;75;97294;-96
2020/12/27 09:52:11;;;;;;;9.60;3.30;;;;;;;1.03;73.79;99675.48;3863164;74;25938;-96
2020/12/27 09:57:15;;;;;;;10.07;4.07;;;;;;;1.08;73.56;99661.19;3845347;74;97204;-93
2020/12/27 10:02:18;;;;;;;11.03;3.58;;;;;;;1.13;72.57;99652.86;3864426;74;29579;-96
2020/12/27 10:07:19;;;;;;;11.67;3.70;;;;;;;1.19;72.63;99642.03;3856725;74;97138;-96
2020/12/27 10:12:21;;;;;;;11.83;4.13;;;;;;;1.24;72.95;99636.41;3878581;75;35065;-96
2020/12/27 10:17:22;;;;;;;13.85;4.40;;;;;;;1.29;72.54;99623.20;3849231;74;97948;-96
2020/12/27 10:22:23;;;;;;;11.35;3.75;;;;;;;1.33;72.63;99603.80;3877988;74;31700;-96
2020/12/27 10:27:25;;;;;;;10.10;3.83;;;;;;;1.34;71.93;99593.98;3860095;74;97800;-96
2020/12/27 10:32:28;;;;;;;10.20;4.07;;;;;;;1.38;71.91;99596.80;3859657;74;34924;-96
2020/12/27 10:37:28;;;;;;;10.25;3.87;;;;;;;1.42;71.86;99591.72;3865442;74;97269;-95
2020/12/27 10:42:29;;;;;;;12.73;5.27;;;;;;;1.46;71.40;99583.15;3848193;74;34955;-95
2020/12/27 10:47:30;;;;;;;13.83;5.20;;;;;;;1.49;71.35;99580.33;3872823;74;97205;-96
2020/12/27 10:52:31;;;;;;;9.30;3.17;;;;;;;1.51;69.42;99565.86;3861333;75;34958;-96
2020/12/27 10:57:32;;;;;;;13.87;4.20;;;;;;;1.56;69.96;99570.51;3841918;74;97801;-93
2020/12/27 11:02:32;;;;;;;14.93;5.73;;;;;;;1.60;68.05;99547.57;3855862;74;34845;-95
2020/12/27 11:07:33;;;;;;;13.77;4.00;;;;;;;1.67;67.98;99545.88;3852499;75;97947;-96
2020/12/27 11:12:34;;;;;;;10.03;3.98;;;;;;;1.77;67.96;99531.06;3840871;75;33506;-95
2020/12/27 11:17:35;;;;;;;12.67;4.17;;;;;;;1.87;67.96;99522.47;3842230;75;97181;-95
2020/12/27 11:22:38;;;;;;;13.90;5.30;;;;;;;1.94;67.23;99507.75;3863615;74;32625;-96
2020/12/27 11:27:38;;;;;;;13.27;5.07;;;;;;;2.01;68.77;99500.63;3838956;74;97758;-96
2020/12/27 11:32:39;;;;;;;14.37;5.97;;;;;;;2.10;68.07;99495.06;3866332;74;32597;-94
2020/12/27 11:37:40;;;;;;;15.13;5.77;;;;;;;2.13;67.33;99485.66;3845122;75;97747;-96
2020/12/27 11:42:41;;;;;;;14.03;4.93;;;;;;;2.07;67.46;99430.05;3865355;75;32542;-94
2020/12/27 11:47:42;;;;;;;13.07;5.40;;;;;;;2.07;67.46;99430.05;3848127;74;97839;-95
2020/12/27 11:52:42;;;;;;;13.50;5.07;;;;;;;2.17;67.04;99449.92;3863450;74;32649;-95
2020/12/27 11:57:43;;;;;;;12.20;4.73;;;;;;;2.18;67.16;99433.08;3881914;74;97778;-95
2020/12/27 12:02:47;;;;;;;13.53;5.33;;;;;;;2.19;67.20;99419.73;3859849;75;32334;-96
2020/12/27 12:07:47;;;;;;;12.70;4.72;;;;;;;2.18;66.84;99403.22;3860967;75;97911;-96
2020/12/27 12:12:47;;;;;;;10.67;5.13;;;;;;;2.21;66.87;99383.52;3840056;75;26187;-94
2020/12/27 12:17:49;;;;;;;12.77;4.50;;;;;;;2.25;66.82;99369.48;3844957;74;98530;-94
2020/12/27 12:22:49;;;;;;;12.97;5.20;;;;;;;2.29;65.11;99356.21;3842235;74;25719;-95
2020/12/27 12:27:50;;;;;;;13.27;5.50;;;;;;;2.31;65.99;99347.17;3829989;74;98102;-96
2020/12/27 12:32:51;;;;;;;10.60;4.17;;;;;;;2.39;65.16;99329.91;3858940;75;25731;-94
2020/12/27 12:37:52;;;;;;;10.67;4.47;;;;;;;2.40;63.78;99316.55;3844770;74;98017;-92
2020/12/27 12:42:53;;;;;;;11.97;3.73;;;;;;;2.44;63.93;99316.08;3827861;75;25853;-95
2020/12/27 12:47:54;;;;;;;11.00;4.50;;;;;;;2.47;64.26;99292.87;3861243;74;97980;-93
2020/12/27 12:52:55;;;;;;;13.97;4.83;;;;;;;2.47;64.37;99285.50;3852153;74;26035;-95
2020/12/27 12:57:56;;;;;;;13.13;4.53;;;;;;;2.49;64.47;99274.30;3849593;74;97965;-94
2020/12/27 13:02:57;;;;;;;10.93;4.27;;;;;;;2.49;64.42;99272.38;3870069;74;32782;-95
2020/12/27 13:07:58;;;;;;;12.43;4.70;;;;;;;2.47;64.45;99282.78;3722038;77;98245;-95
2020/12/27 13:12:59;;;;;;;27.73;14.23;;;;;;;2.45;63.26;99272.05;3793239;76;32750;-95
2020/12/27 13:18:00;;;;;;;15.07;6.73;;;;;;;2.42;63.85;99252.41;3758021;75;98094;-93
2020/12/27 13:23:01;;;;;;;16.83;9.33;;;;;;;2.40;63.25;99251.39;3758991;76;31951;-94
2020/12/27 13:28:02;;;;;;;14.67;7.50;;;;;;;2.38;63.49;99245.54;3752530;76;98383;-94
2020/12/27 13:33:03;;;;;;;12.10;4.23;;;;;;;2.34;61.69;99220.78;3756865;77;32651;-96
2020/12/27 13:38:04;;;;;;;14.33;5.77;;;;;;;2.29;63.16;99220.48;3748727;76;98229;-94
2020/12/27 13:43:05;;;;;;;19.37;8.40;;;;;;;2.27;63.26;99196.99;3752628;77;26965;-96
2020/12/27 13:48:07;;;;;;;19.07;7.80;;;;;;;2.24;62.34;99193.61;3762792;75;97901;-94
2020/12/27 13:53:08;;;;;;;16.63;5.90;;;;;;;2.23;62.24;99190.69;3772194;76;25850;-95
2020/12/27 13:58:09;;;;;;;13.50;5.58;;;;;;;2.19;62.63;99173.52;3842671;74;97912;-96
2020/12/27 14:03:10;;;;;;;22.13;7.80;;;;;;;2.11;64.12;99177.22;3871015;74;31596;-95
2020/12/27 14:08:11;;;;;;;18.37;7.43;;;;;;;2.02;65.11;99167.11;3846116;75;98555;-95
2020/12/27 14:13:12;;;;;;;17.27;6.93;;;;;;;1.92;65.92;99158.12;3864801;74;31232;-95
2020/12/27 14:18:13;;;;;;;19.23;8.50;;;;;;;1.85;66.27;99134.11;3866101;74;97931;-95
2020/12/27 14:23:14;;;;;;;18.53;6.33;;;;;;;1.77;66.79;99129.66;3876373;75;31396;-94
2020/12/27 14:28:15;;;;;;;17.53;6.47;;;;;;;1.66;66.86;99115.05;3833052;75;97917;-95
2020/12/27 14:33:16;;;;;;;12.93;5.93;;;;;;;1.58;67.49;99112.73;3863005;74;29864;-95
2020/12/27 14:38:16;;;;;;;17.87;5.60;;;;;;;1.54;67.66;99109.72;3837934;74;97924;-96
2020/12/27 14:43:17;;;;;;;11.93;5.07;;;;;;;1.47;67.58;99092.70;3857120;75;25696;-94
2020/12/27 14:48:18;;;;;;;15.58;6.20;;;;;;;1.38;67.70;99066.91;3848637;74;97296;-96
2020/12/27 14:53:19;;;;;;;19.43;8.93;;;;;;;1.32;68.01;99069.66;3851803;74;35378;-95
2020/12/27 14:58:20;;;;;;;14.30;6.20;;;;;;;1.27;68.12;99069.33;3870748;74;97184;-92
2020/12/27 15:03:21;;;;;;;18.23;6.40;;;;;;;1.22;68.34;99079.66;3853904;75;34978;-95
2020/12/27 15:08:21;;;;;;;15.87;5.40;;;;;;;1.20;68.25;99073.81;3847620;74;98585;-96
2020/12/27 15:13:23;;;;;;;14.20;5.87;;;;;;;1.18;68.09;99061.95;3868514;74;35178;-95
2020/12/27 15:18:24;;;;;;;16.37;5.80;;;;;;;1.17;67.84;99053.61;3856056;74;98295;-95
2020/12/27 15:23:28;;;;;;;14.80;6.13;;;;;;;1.17;68.49;99062.30;3855028;74;35099;-96
2020/12/27 15:28:28;;;;;;;13.73;5.80;;;;;;;1.17;68.45;99040.63;3840304;74;97956;-96
2020/12/27 15:33:28;;;;;;;12.50;5.17;;;;;;;1.16;67.83;99048.53;3865504;75;34942;-96
2020/12/27 15:38:29;;;;;;;16.70;8.13;;;;;;;1.15;68.30;99048.32;3841313;74;97165;-94
2020/12/27 15:43:30;;;;;;;16.83;7.43;;;;;;;1.17;68.01;99037.36;3858629;75;34853;-94
2020/12/27 15:48:31;;;;;;;18.90;8.90;;;;;;;1.20;68.36;99025.80;3863809;75;98315;-96
2020/12/27 15:53:32;;;;;;;16.83;6.07;;;;;;;1.22;68.25;99016.75;3856863;75;33144;-96
2020/12/27 15:58:32;;;;;;;18.40;8.13;;;;;;;1.22;68.31;99006.50;3868144;74;97557;-96
2020/12/27 16:03:33;;;;;;;19.37;8.80;;;;;;;1.21;68.67;98992.15;3863048;75;33055;-94
2020/12/27 16:08:34;;;;;;;17.10;7.20;;;;;;;1.21;68.96;98992.73;3880042;74;97743;-96
2020/12/27 16:13:35;;;;;;;14.60;6.37;;;;;;;1.19;69.04;98979.53;3869469;74;32878;-94
2020/12/27 16:18:36;;;;;;;17.13;6.33;;;;;;;1.17;69.26;98964.77;3867667;74;97274;-95
2020/12/27 16:23:38;;;;;;;16.40;6.73;;;;;;;1.15;69.36;98955.63;3862046;75;32792;-95
2020/12/27 16:28:40;;;;;;;14.40;5.87;;;;;;;1.14;69.36;98949.99;3856199;74;97949;-95
2020/12/27 16:33:43;;;;;;;14.30;6.40;;;;;;;1.11;69.49;98943.91;3862140;74;32749;-95
2020/12/27 16:38:44;;;;;;;16.17;7.45;;;;;;;1.06;69.51;98937.98;3865287;74;97936;-95
2020/12/27 16:43:46;;;;;;;16.57;6.13;;;;;;;1.03;69.45;98938.67;3862513;74;32514;-95
2020/12/27 16:48:47;;;;;;;15.83;6.17;;;;;;;0.97;69.68;98938.16;3852647;74;97170;-95
2020/12/27 16:53:47;;;;;;;13.10;5.73;;;;;;;0.94;69.90;98926.66;3848981;75;32670;-94
2020/12/27 16:58:48;;;;;;;13.68;5.45;;;;;;;0.92;70.07;98930.84;3884902;74;97907;-95
2020/12/27 17:03:49;;;;;;;14.87;6.30;;;;;;;0.97;70.12;98930.59;3880409;74;32711;-94
2020/12/27 17:08:50;;;;;;;15.87;5.73;;;;;;;1.00;69.21;98919.07;3847839;75;97896;-94
2020/12/27 17:13:51;;;;;;;19.27;6.75;;;;;;;1.06;69.63;98896.00;3867453;74;32656;-96
2020/12/27 17:18:53;;;;;;;17.63;5.53;;;;;;;1.06;69.71;98883.81;3859674;75;97176;-95
2020/12/27 17:23:54;;;;;;;13.13;5.77;;;;;;;1.04;69.55;98878.73;3867497;75;32659;-94
2020/12/27 17:28:54;;;;;;;16.47;6.40;;;;;;;1.03;69.36;98879.87;3854507;74;97785;-95
2020/12/27 17:33:55;;;;;;;15.80;6.47;;;;;;;0.93;69.38;98861.45;3877509;75;32608;-96
2020/12/27 17:38:58;;;;;;;15.05;6.05;;;;;;;1.03;69.48;98871.75;3858753;74;98085;-93
2020/12/27 17:44:00;;;;;;;17.07;7.15;;;;;;;1.01;69.58;98874.03;3876149;74;31251;-96
2020/12/27 17:49:01;;;;;;;16.03;6.43;;;;;;;0.98;69.78;98848.20;3859594;75;97273;-96
2020/12/27 17:54:02;;;;;;;16.73;7.00;;;;;;;0.96;69.51;98847.77;3862074;75;25861;-95
2020/12/27 17:59:04;;;;;;;15.83;6.37;;;;;;;0.96;69.88;98839.09;3837650;74;97917;-96
2020/12/27 18:04:05;;;;;;;14.40;6.50;;;;;;;0.94;69.92;98837.88;3868774;74;26137;-96
2020/12/27 18:09:06;;;;;;;15.35;6.17;;;;;;;0.94;69.92;98828.39;3885593;75;98393;-96
2020/12/27 18:14:06;;;;;;;15.10;7.33;;;;;;;0.91;70.09;98817.70;3862380;75;25840;-96
2020/12/27 18:19:07;;;;;;;15.67;6.33;;;;;;;0.92;70.28;98807.08;3865922;74;98228;-96
2020/12/27 18:24:08;;;;;;;16.70;7.23;;;;;;;0.92;70.17;98796.80;3876966;75;26458;-95
2020/12/27 18:29:10;;;;;;;20.97;8.80;;;;;;;0.92;70.13;98785.97;3867653;74;97955;-96
2020/12/27 18:34:10;;;;;;;21.43;8.40;;;;;;;0.90;70.20;98778.22;3868325;74;25890;-95
2020/12/27 18:39:11;;;;;;;22.13;8.27;;;;;;;0.91;70.39;98766.80;3862252;74;97244;-96
2020/12/27 18:44:12;;;;;;;17.53;7.50;;;;;;;0.93;70.27;98748.30;3890686;74;25791;-96
2020/12/27 18:49:16;;;;;;;16.77;7.23;;;;;;;0.96;70.43;98743.51;3864410;74;97125;-96
2020/12/27 18:54:16;;;;;;;14.97;5.87;;;;;;;0.96;70.43;98727.27;3861791;74;32792;-94
2020/12/27 18:59:17;;;;;;;16.30;5.70;;;;;;;0.97;70.55;98711.22;3828617;74;98563;-94
2020/12/27 19:04:18;;;;;;;17.50;6.47;;;;;;;0.97;70.74;98693.06;3897288;74;32981;-95
2020/12/27 19:09:21;;;;;;;16.20;6.93;;;;;;;0.97;70.47;98693.62;3799829;75;97467;-96
2020/12/27 19:14:22;;;;;;;16.00;6.67;;;;;;;0.98;70.79;98691.12;3781428;76;33062;-94
2020/12/27 19:19:23;;;;;;;18.83;6.60;;;;;;;0.99;71.01;98672.40;3773993;74;97742;-96
2020/12/27 19:24:24;;;;;;;17.97;6.73;;;;;;;1.03;71.13;98680.00;3760483;77;33039;-96
2020/12/27 19:29:25;;;;;;;14.63;6.10;;;;;;;1.04;71.12;98670.17;3756706;76;97732;-96
2020/12/27 19:34:26;;;;;;;15.93;6.53;;;;;;;1.06;71.41;98663.84;3749860;77;33024;-95
2020/12/27 19:39:27;;;;;;;18.03;6.70;;;;;;;1.10;71.44;98651.73;3779941;76;97074;-96
2020/12/27 19:44:27;;;;;;;18.83;8.10;;;;;;;1.13;71.58;98649.64;3762004;77;32000;-94
2020/12/27 19:49:28;;;;;;;19.07;8.03;;;;;;;1.11;71.58;98633.73;3757080;76;96987;-95
2020/12/27 19:54:29;;;;;;;21.17;9.07;;;;;;;1.07;71.99;98618.02;3683999;78;30007;-96
2020/12/27 19:59:30;;;;;;;23.73;8.30;;;;;;;1.01;72.05;98612.67;3778481;76;97798;-96
2020/12/27 20:04:31;;;;;;;20.40;8.57;;;;;;;0.98;72.34;98597.69;3775166;77;31280;-96
2020/12/27 20:09:32;;;;;;;27.90;10.63;;;;;;;0.94;72.53;98591.44;3763925;76;96960;-96
2020/12/27 20:14:33;;;;;;;31.03;12.63;;;;;;;0.89;72.64;98578.19;3774013;76;31438;-96
2020/12/27 20:19:34;;;;;;;37.07;15.13;;;;;;;0.84;72.56;98560.32;3767162;77;97834;-93
2020/12/27 20:24:34;;;;;;;31.83;13.10;;;;;;;0.82;72.71;98565.28;3765433;77;29447;-96
2020/12/27 20:29:35;;;;;;;31.67;10.60;;;;;;;0.78;72.47;98565.78;3776688;76;97143;-94
2020/12/27 20:34:36;;;;;;;38.17;16.50;;;;;;;0.76;72.64;98556.45;3774395;77;28403;-96
2020/12/27 20:39:37;;;;;;;37.90;16.23;;;;;;;0.72;72.59;98542.85;3791254;76;97989;-96
2020/12/27 20:44:38;;;;;;;32.37;14.43;;;;;;;0.72;72.63;98538.03;3792559;76;25441;-96
2020/12/27 20:49:39;;;;;;;29.13;12.37;;;;;;;0.70;72.61;98530.25;3748957;76;97155;-96
2020/12/27 20:54:40;;;;;;;32.50;13.20;;;;;;;0.70;72.79;98509.16;3763210;77;34957;-96
2020/12/27 20:59:41;;;;;;;31.37;12.77;;;;;;;0.70;73.00;98505.89;3775751;76;97806;-96
2020/12/27 21:04:42;;;;;;;34.00;14.27;;;;;;;0.70;73.19;98509.95;3761488;76;35074;-96
2020/12/27 21:09:42;;;;;;;28.02;11.88;;;;;;;0.71;73.46;98509.39;3781368;76;97754;-94
2020/12/27 21:14:46;;;;;;;27.53;12.00;;;;;;;0.74;73.67;98501.34;3789797;76;55337;-85
2020/12/27 21:19:47;;;;;;;35.90;14.27;;;;;;;0.78;73.80;98513.58;3662412;79;98246;-86
2020/12/27 21:24:48;;;;;;;26.07;12.10;;;;;;;0.80;74.16;98508.02;3750524;77;35361;-84
2020/12/27 21:29:49;;;;;;;28.77;13.57;;;;;;;0.83;74.15;98494.34;3748307;77;97997;-84
2020/12/27 21:34:49;;;;;;;25.83;9.90;;;;;;;0.85;74.31;98498.25;3763544;76;35098;-88
2020/12/27 21:39:50;;;;;;;29.97;11.90;;;;;;;0.93;74.45;98495.87;3759074;77;98018;-87
2020/12/27 21:44:52;;;;;;;27.90;10.43;;;;;;;0.99;74.41;98490.36;3768316;77;35095;-85
2020/12/27 21:49:53;;;;;;;28.77;11.00;;;;;;;1.03;74.58;98486.36;3743897;76;98317;-83
2020/12/27 21:54:54;;;;;;;32.23;14.77;;;;;;;1.03;74.78;98470.11;3750630;77;35078;-86
2020/12/27 21:59:55;;;;;;;26.97;10.50;;;;;;;1.05;75.01;98482.73;3760071;76;98603;-86
2020/12/27 22:04:56;;;;;;;27.97;11.53;;;;;;;1.06;75.24;98473.46;3762013;77;35233;-84
2020/12/27 22:09:56;;;;;;;28.87;11.83;;;;;;;1.07;75.39;98457.41;3758575;75;98338;-86
2020/12/27 22:14:57;;;;;;;28.30;11.70;;;;;;;1.08;75.58;98442.16;3762996;77;32947;-86
2020/12/27 22:19:58;;;;;;;31.63;12.03;;;;;;;1.08;75.75;98435.39;3766357;75;98540;-85
2020/12/27 22:25:02;;;;;;;29.77;11.83;;;;;;;1.06;75.92;98434.98;3714934;77;32732;-86
2020/12/27 22:30:02;;;;;;;28.37;11.70;;;;;;;1.06;76.35;98420.65;3759580;77;97900;-84
2020/12/27 22:35:06;;;;;;;28.77;11.83;;;;;;;1.05;76.36;98415.03;3760938;77;32679;-84
2020/12/27 22:40:13;;;;;;;28.03;11.67;;;;;;;1.00;76.58;98419.39;3754603;77;98206;-86
2020/12/27 22:45:14;;;;;;;;;;;;;;;1.03;76.89;98416.73;3769250;75;26186;-86
2020/12/27 22:50:15;;;;;;;29.00;11.17;;;;;;;1.03;77.30;98403.76;3748818;74;84267;-87
2020/12/27 22:55:16;;;;;;;26.13;10.43;;;;;;;1.03;77.33;98406.47;3749783;77;32707;-84
2020/12/27 23:00:16;;;;;;;27.07;11.08;;;;;;;1.04;77.47;98392.57;3755242;75;97842;-84
2020/12/27 23:05:18;;;;;;;23.93;9.83;;;;;;;1.06;77.72;98396.27;3744163;77;32618;-86
2020/12/27 23:10:19;;;;;;;20.57;9.57;;;;;;;1.05;77.89;98384.65;3745588;77;98136;-84
2020/12/27 23:15:23;;;;;;;25.70;12.35;;;;;;;1.05;77.95;98373.81;3750141;76;32695;-85
2020/12/27 23:20:24;;;;;;;28.73;10.72;;;;;;;1.04;78.07;98364.72;3741674;77;98368;-85
2020/12/27 23:25:28;;;;;;;28.70;10.07;;;;;;;1.01;78.43;98347.27;3754849;77;32924;-85
2020/12/27 23:30:36;;;;;;;25.63;11.37;;;;;;;1.01;78.50;98344.56;3757329;77;98209;-84
2020/12/27 23:35:37;;;;;;;26.70;12.27;;;;;;;0.99;78.42;98341.42;3747777;77;33532;-85
2020/12/27 23:40:38;;;;;;;23.60;10.43;;;;;;;0.96;78.58;98331.34;3759645;77;98255;-83
2020/12/27 23:45:41;;;;;;;26.02;10.68;;;;;;;0.94;78.91;98320.66;3747023;77;33016;-87
2020/12/27 23:50:42;;;;;;;27.33;12.00;;;;;;;0.89;78.67;98300.66;3723141;76;97933;-85
2020/12/27 23:55:43;;;;;;;30.83;12.17;;;;;;;0.85;78.78;98282.22;3750574;77;32688;-84
